Aalborg, Denmark

5:25 AM CEST on September 01, 2015 (GMT +0200)
Goegeurtvej | | Change Station
CLOSE
Current Station
Personal Weather Station
Location: Vodskov,
Elevation: 33 ft
Nearby Weather Stations

Elev 33 ft 57.11 °N, 10.01 °E | Updated 4 minutes ago

Light Rain
Light Rain
58.5 °F
Feels Like 58.5 °F
N
2.7
Wind Variable Wind from NNW
Gusts 9.2 mph

Today
High -- | Low -- °F
--% Chance of Precip.
Yesterday
High -- | Low -- °F
Precip. -- in
6:21 AM 8:18 PM
Waning Gibbous, 92% visible
Pressure 29.68 in
Visibility 5.0 miles
Clouds Scattered Clouds 700 ft
Mostly Cloudy 1000 ft
Dew Point 58 °F
Humidity 98%
Rainfall 0.54 in
Snow Depth Not available.
UV 0 out of 12
Pollen Not available.
Air Quality Not available.
Flu Activity Not available.
METAR EKYT 010320Z 05005KT 010V080 8000 -RA SCT007 BKN010 15/15 Q1005
Pressure 29.68 in
Visibility 5.0 miles
Clouds Scattered Clouds 700 ft
Mostly Cloudy 1000 ft
Dew Point 58 °F
Humidity 98%
Rainfall 0.54 in
Snow Depth Not available.
UV 0 out of 12
Pollen Not available.
Air Quality Not available.
Flu Activity Not available.
METAR EKYT 010320Z 05005KT 010V080 8000 -RA SCT007 BKN010 15/15 Q1005

10-Day Weather Forecast

×

Almanac

Astronomy

Sep. 01, 2015 Rise Set
Actual Time
Civil Twilight
Nautical Twilight
Astronomical Twilight
Moon
Length of Visible Light
Length of Day
Tomorrow will be .
, % of the Moon is Illuminated

Today's Extremes

Country Highs Country Lows

Community

WunderPhotos

Upload Photos

1,851,474 photos uploaded!

WunderBlogs® & News

Nearby

Air Quality

  Air Quality AQ Index Pollutant
Not available.

Snow Depth

Station Depth Elevation

Earthquake Activity

City Distance Mag. Time & Date
Minimum magnitude displayed is 2.5.

Coastal Water Temperatures

Place Temperature

Stations

Nearby Weather Stations

Station Location Temp. Windchill Dew Point Humidity Wind Precip. Elev Updated Type